sensor_id;sensor_type;location;lat;lon;timestamp;temperature;humidity
210;DHT22;90;48.810;9.120;2022-10-26T00:08:46;14.20;89.00
210;DHT22;90;48.810;9.120;2022-10-26T00:11:16;14.10;89.40
210;DHT22;90;48.810;9.120;2022-10-26T00:13:43;14.10;89.30
210;DHT22;90;48.810;9.120;2022-10-26T00:16:13;14.10;89.30
210;DHT22;90;48.810;9.120;2022-10-26T00:18:40;14.10;89.40
210;DHT22;90;48.810;9.120;2022-10-26T00:21:09;14.20;88.50
210;DHT22;90;48.810;9.120;2022-10-26T00:23:36;14.20;88.20
210;DHT22;90;48.810;9.120;2022-10-26T00:26:06;14.20;88.00
210;DHT22;90;48.810;9.120;2022-10-26T00:28:33;14.20;87.40
210;DHT22;90;48.810;9.120;2022-10-26T00:31:01;14.20;87.20
210;DHT22;90;48.810;9.120;2022-10-26T00:33:32;14.20;87.50
210;DHT22;90;48.810;9.120;2022-10-26T00:35:59;14.20;87.10
210;DHT22;90;48.810;9.120;2022-10-26T00:38:26;14.20;86.90
210;DHT22;90;48.810;9.120;2022-10-26T00:40:53;14.20;86.60
210;DHT22;90;48.810;9.120;2022-10-26T00:43:37;14.20;86.50
210;DHT22;90;48.810;9.120;2022-10-26T00:46:08;14.30;86.30
210;DHT22;90;48.810;9.120;2022-10-26T00:48:41;14.20;86.30
210;DHT22;90;48.810;9.120;2022-10-26T00:51:14;14.30;86.50
210;DHT22;90;48.810;9.120;2022-10-26T00:53:43;14.20;86.70
210;DHT22;90;48.810;9.120;2022-10-26T00:56:10;14.20;86.70
210;DHT22;90;48.810;9.120;2022-10-26T00:58:39;14.30;87.10
210;DHT22;90;48.810;9.120;2022-10-26T01:01:07;14.30;87.20
210;DHT22;90;48.810;9.120;2022-10-26T01:03:35;14.30;87.50
210;DHT22;90;48.810;9.120;2022-10-26T01:06:03;14.20;88.10
210;DHT22;90;48.810;9.120;2022-10-26T01:08:31;14.30;88.30
210;DHT22;90;48.810;9.120;2022-10-26T01:10:59;14.30;88.20
210;DHT22;90;48.810;9.120;2022-10-26T01:13:30;14.30;88.20
210;DHT22;90;48.810;9.120;2022-10-26T01:16:18;14.30;88.30
210;DHT22;90;48.810;9.120;2022-10-26T01:18:56;14.30;88.90
210;DHT22;90;48.810;9.120;2022-10-26T01:21:40;14.20;88.90
210;DHT22;90;48.810;9.120;2022-10-26T01:24:35;14.30;88.90
210;DHT22;90;48.810;9.120;2022-10-26T01:27:23;14.30;88.70
210;DHT22;90;48.810;9.120;2022-10-26T01:30:12;14.30;88.90
210;DHT22;90;48.810;9.120;2022-10-26T01:32:45;14.20;89.30
210;DHT22;90;48.810;9.120;2022-10-26T01:35:16;14.30;89.00
210;DHT22;90;48.810;9.120;2022-10-26T01:37:47;14.30;89.20
210;DHT22;90;48.810;9.120;2022-10-26T01:40:22;14.20;89.50
210;DHT22;90;48.810;9.120;2022-10-26T01:42:58;14.20;89.90
210;DHT22;90;48.810;9.120;2022-10-26T01:45:30;14.10;89.90
210;DHT22;90;48.810;9.120;2022-10-26T01:47:58;14.20;90.00
210;DHT22;90;48.810;9.120;2022-10-26T01:50:26;14.20;90.00
210;DHT22;90;48.810;9.120;2022-10-26T01:52:54;14.10;90.40
210;DHT22;90;48.810;9.120;2022-10-26T01:55:49;14.10;90.30
210;DHT22;90;48.810;9.120;2022-10-26T01:58:49;14.00;90.80
210;DHT22;90;48.810;9.120;2022-10-26T02:01:32;14.00;90.80
210;DHT22;90;48.810;9.120;2022-10-26T02:04:09;14.00;91.60
210;DHT22;90;48.810;9.120;2022-10-26T02:06:44;13.90;91.60
210;DHT22;90;48.810;9.120;2022-10-26T02:09:21;13.80;92.90
210;DHT22;90;48.810;9.120;2022-10-26T02:11:52;13.80;92.90
210;DHT22;90;48.810;9.120;2022-10-26T02:14:24;13.80;92.70
210;DHT22;90;48.810;9.120;2022-10-26T02:16:56;13.70;92.90
210;DHT22;90;48.810;9.120;2022-10-26T02:19:31;13.70;93.00
210;DHT22;90;48.810;9.120;2022-10-26T02:22:04;13.70;92.70
210;DHT22;90;48.810;9.120;2022-10-26T02:24:36;13.70;92.70
210;DHT22;90;48.810;9.120;2022-10-26T02:27:05;13.70;92.40
210;DHT22;90;48.810;9.120;2022-10-26T02:29:34;13.80;92.50
210;DHT22;90;48.810;9.120;2022-10-26T02:32:05;13.90;92.30
210;DHT22;90;48.810;9.120;2022-10-26T02:34:37;13.80;92.30
210;DHT22;90;48.810;9.120;2022-10-26T02:37:06;13.90;92.20
210;DHT22;90;48.810;9.120;2022-10-26T02:39:35;13.90;92.30
210;DHT22;90;48.810;9.120;2022-10-26T02:42:06;13.90;92.30
210;DHT22;90;48.810;9.120;2022-10-26T02:44:39;13.80;92.90
210;DHT22;90;48.810;9.120;2022-10-26T02:47:09;13.80;93.50
210;DHT22;90;48.810;9.120;2022-10-26T02:49:37;13.80;93.40
210;DHT22;90;48.810;9.120;2022-10-26T02:52:10;13.80;93.40
210;DHT22;90;48.810;9.120;2022-10-26T02:54:47;13.80;93.40
210;DHT22;90;48.810;9.120;2022-10-26T02:57:18;13.80;93.00
210;DHT22;90;48.810;9.120;2022-10-26T02:59:47;13.80;93.30
210;DHT22;90;48.810;9.120;2022-10-26T03:02:17;13.80;93.20
210;DHT22;90;48.810;9.120;2022-10-26T03:04:46;13.80;93.20
210;DHT22;90;48.810;9.120;2022-10-26T03:07:21;13.70;93.30
210;DHT22;90;48.810;9.120;2022-10-26T03:09:49;13.70;93.40
210;DHT22;90;48.810;9.120;2022-10-26T03:12:16;13.70;93.60
210;DHT22;90;48.810;9.120;2022-10-26T03:14:46;13.60;93.90
210;DHT22;90;48.810;9.120;2022-10-26T03:17:13;13.60;94.20
210;DHT22;90;48.810;9.120;2022-10-26T03:19:42;13.70;94.00
210;DHT22;90;48.810;9.120;2022-10-26T03:22:09;13.70;94.00
210;DHT22;90;48.810;9.120;2022-10-26T03:24:36;13.70;94.20
210;DHT22;90;48.810;9.120;2022-10-26T03:27:03;13.70;94.40
210;DHT22;90;48.810;9.120;2022-10-26T03:29:31;13.70;94.20
210;DHT22;90;48.810;9.120;2022-10-26T03:31:59;13.70;94.00
210;DHT22;90;48.810;9.120;2022-10-26T03:34:26;13.70;94.10
210;DHT22;90;48.810;9.120;2022-10-26T03:36:55;13.70;94.40
210;DHT22;90;48.810;9.120;2022-10-26T03:39:22;13.70;94.20
210;DHT22;90;48.810;9.120;2022-10-26T03:41:49;13.70;94.40
210;DHT22;90;48.810;9.120;2022-10-26T03:44:16;13.70;94.10
210;DHT22;90;48.810;9.120;2022-10-26T03:46:45;13.70;93.90
210;DHT22;90;48.810;9.120;2022-10-26T03:49:13;13.70;93.90
210;DHT22;90;48.810;9.120;2022-10-26T03:51:42;13.70;93.50
210;DHT22;90;48.810;9.120;2022-10-26T03:54:14;13.70;93.20
210;DHT22;90;48.810;9.120;2022-10-26T03:56:51;13.70;92.90
210;DHT22;90;48.810;9.120;2022-10-26T03:59:29;13.70;93.00
210;DHT22;90;48.810;9.120;2022-10-26T04:01:58;13.70;93.10
210;DHT22;90;48.810;9.120;2022-10-26T04:04:30;13.80;92.60
210;DHT22;90;48.810;9.120;2022-10-26T04:07:16;13.80;92.60
210;DHT22;90;48.810;9.120;2022-10-26T04:09:44;14.10;90.90
210;DHT22;90;48.810;9.120;2022-10-26T04:12:11;14.20;90.80
210;DHT22;90;48.810;9.120;2022-10-26T04:14:41;14.20;90.80
210;DHT22;90;48.810;9.120;2022-10-26T04:17:09;14.20;90.80
210;DHT22;90;48.810;9.120;2022-10-26T04:19:39;14.20;91.20
210;DHT22;90;48.810;9.120;2022-10-26T04:22:08;14.10;91.40
210;DHT22;90;48.810;9.120;2022-10-26T04:24:46;14.10;91.70
210;DHT22;90;48.810;9.120;2022-10-26T04:27:23;14.10;91.80
210;DHT22;90;48.810;9.120;2022-10-26T04:30:01;14.10;91.90
210;DHT22;90;48.810;9.120;2022-10-26T04:34:26;14.10;91.90
210;DHT22;90;48.810;9.120;2022-10-26T04:36:28;14.10;92.00
210;DHT22;90;48.810;9.120;2022-10-26T04:39:00;14.10;92.00
210;DHT22;90;48.810;9.120;2022-10-26T04:41:29;14.10;92.30
210;DHT22;90;48.810;9.120;2022-10-26T04:43:57;14.10;92.10
210;DHT22;90;48.810;9.120;2022-10-26T04:46:32;14.10;92.10
210;DHT22;90;48.810;9.120;2022-10-26T04:48:59;14.10;91.90
210;DHT22;90;48.810;9.120;2022-10-26T04:51:29;14.20;91.50
210;DHT22;90;48.810;9.120;2022-10-26T04:53:59;14.30;91.60
210;DHT22;90;48.810;9.120;2022-10-26T04:56:37;14.30;91.30
210;DHT22;90;48.810;9.120;2022-10-26T04:59:04;14.40;91.20
210;DHT22;90;48.810;9.120;2022-10-26T05:01:35;14.50;90.60
210;DHT22;90;48.810;9.120;2022-10-26T05:04:05;14.60;90.50
210;DHT22;90;48.810;9.120;2022-10-26T05:06:35;14.60;90.00
210;DHT22;90;48.810;9.120;2022-10-26T05:09:02;14.60;90.20
210;DHT22;90;48.810;9.120;2022-10-26T05:11:31;14.60;90.20
210;DHT22;90;48.810;9.120;2022-10-26T05:14:01;14.70;89.20
210;DHT22;90;48.810;9.120;2022-10-26T05:16:28;14.60;89.20
210;DHT22;90;48.810;9.120;2022-10-26T05:18:59;14.60;89.20
210;DHT22;90;48.810;9.120;2022-10-26T05:21:26;14.70;88.50
210;DHT22;90;48.810;9.120;2022-10-26T05:23:55;14.70;88.20
210;DHT22;90;48.810;9.120;2022-10-26T05:26:27;14.70;88.20
210;DHT22;90;48.810;9.120;2022-10-26T05:28:56;14.90;87.50
210;DHT22;90;48.810;9.120;2022-10-26T05:31:23;14.90;87.40
210;DHT22;90;48.810;9.120;2022-10-26T05:33:53;14.90;87.40
210;DHT22;90;48.810;9.120;2022-10-26T05:36:20;14.90;87.50
210;DHT22;90;48.810;9.120;2022-10-26T05:38:47;14.90;87.30
210;DHT22;90;48.810;9.120;2022-10-26T05:41:20;14.90;87.20
210;DHT22;90;48.810;9.120;2022-10-26T05:43:47;15.00;86.80
210;DHT22;90;48.810;9.120;2022-10-26T05:46:16;15.00;86.80
210;DHT22;90;48.810;9.120;2022-10-26T05:48:43;15.00;86.70
210;DHT22;90;48.810;9.120;2022-10-26T05:51:12;15.00;86.30
210;DHT22;90;48.810;9.120;2022-10-26T05:53:46;15.10;86.00
210;DHT22;90;48.810;9.120;2022-10-26T05:56:18;15.00;86.20
210;DHT22;90;48.810;9.120;2022-10-26T05:58:47;15.10;86.20
210;DHT22;90;48.810;9.120;2022-10-26T06:01:27;15.10;85.90
210;DHT22;90;48.810;9.120;2022-10-26T06:04:19;15.10;86.20
210;DHT22;90;48.810;9.120;2022-10-26T06:07:09;15.10;86.20
210;DHT22;90;48.810;9.120;2022-10-26T06:09:41;15.10;86.00
210;DHT22;90;48.810;9.120;2022-10-26T06:12:09;15.10;85.80
210;DHT22;90;48.810;9.120;2022-10-26T06:14:37;15.10;85.80
210;DHT22;90;48.810;9.120;2022-10-26T06:17:26;15.20;85.90
210;DHT22;90;48.810;9.120;2022-10-26T06:20:20;15.20;86.00
210;DHT22;90;48.810;9.120;2022-10-26T06:23:04;15.20;86.00
210;DHT22;90;48.810;9.120;2022-10-26T06:25:41;15.20;85.90
210;DHT22;90;48.810;9.120;2022-10-26T06:28:17;15.20;86.00
210;DHT22;90;48.810;9.120;2022-10-26T06:30:51;15.20;86.00
210;DHT22;90;48.810;9.120;2022-10-26T06:36:58;15.30;85.80
210;DHT22;90;48.810;9.120;2022-10-26T06:39:28;15.20;85.90
210;DHT22;90;48.810;9.120;2022-10-26T06:41:56;15.30;85.70
210;DHT22;90;48.810;9.120;2022-10-26T06:44:24;15.30;85.70
210;DHT22;90;48.810;9.120;2022-10-26T06:46:58;15.30;86.10
210;DHT22;90;48.810;9.120;2022-10-26T06:49:31;15.30;86.30
210;DHT22;90;48.810;9.120;2022-10-26T06:52:07;15.40;86.10
210;DHT22;90;48.810;9.120;2022-10-26T06:54:46;15.40;86.20
210;DHT22;90;48.810;9.120;2022-10-26T06:57:15;15.60;89.60
210;DHT22;90;48.810;9.120;2022-10-26T06:59:45;15.60;89.60
210;DHT22;90;48.810;9.120;2022-10-26T07:02:19;16.30;90.70
210;DHT22;90;48.810;9.120;2022-10-26T07:04:49;16.40;82.40
210;DHT22;90;48.810;9.120;2022-10-26T07:07:19;16.30;82.40
210;DHT22;90;48.810;9.120;2022-10-26T07:09:51;16.00;84.30
210;DHT22;90;48.810;9.120;2022-10-26T07:12:18;15.90;84.60
210;DHT22;90;48.810;9.120;2022-10-26T07:14:46;15.90;84.70
210;DHT22;90;48.810;9.120;2022-10-26T07:17:14;15.80;85.30
210;DHT22;90;48.810;9.120;2022-10-26T07:19:42;15.80;85.50
210;DHT22;90;48.810;9.120;2022-10-26T07:22:15;15.70;86.00
210;DHT22;90;48.810;9.120;2022-10-26T07:24:55;15.70;86.00
210;DHT22;90;48.810;9.120;2022-10-26T07:27:25;15.60;86.20
210;DHT22;90;48.810;9.120;2022-10-26T07:29:55;15.60;86.20
210;DHT22;90;48.810;9.120;2022-10-26T07:35:15;15.70;86.20
210;DHT22;90;48.810;9.120;2022-10-26T07:37:43;15.70;86.30
210;DHT22;90;48.810;9.120;2022-10-26T07:40:12;15.60;86.30
210;DHT22;90;48.810;9.120;2022-10-26T07:42:54;15.70;86.50
210;DHT22;90;48.810;9.120;2022-10-26T07:45:25;15.70;86.50
210;DHT22;90;48.810;9.120;2022-10-26T07:47:58;15.70;86.50
210;DHT22;90;48.810;9.120;2022-10-26T07:50:26;15.60;86.70
210;DHT22;90;48.810;9.120;2022-10-26T07:52:53;15.70;86.60
210;DHT22;90;48.810;9.120;2022-10-26T07:55:22;15.70;86.70
210;DHT22;90;48.810;9.120;2022-10-26T07:57:49;15.70;87.00
210;DHT22;90;48.810;9.120;2022-10-26T08:00:16;15.60;87.00
210;DHT22;90;48.810;9.120;2022-10-26T08:02:44;15.70;86.90
210;DHT22;90;48.810;9.120;2022-10-26T08:05:14;15.70;86.80
210;DHT22;90;48.810;9.120;2022-10-26T08:07:44;15.70;86.90
210;DHT22;90;48.810;9.120;2022-10-26T08:10:12;15.80;86.60
210;DHT22;90;48.810;9.120;2022-10-26T08:12:42;15.80;86.50
210;DHT22;90;48.810;9.120;2022-10-26T08:15:10;15.70;86.50
210;DHT22;90;48.810;9.120;2022-10-26T08:17:39;15.80;86.60
210;DHT22;90;48.810;9.120;2022-10-26T08:20:13;15.80;86.60
210;DHT22;90;48.810;9.120;2022-10-26T08:22:40;16.30;88.20
210;DHT22;90;48.810;9.120;2022-10-26T08:25:10;17.00;86.20
210;DHT22;90;48.810;9.120;2022-10-26T08:27:37;17.50;83.80
210;DHT22;90;48.810;9.120;2022-10-26T08:30:07;17.90;81.70
210;DHT22;90;48.810;9.120;2022-10-26T08:32:34;18.10;79.60
210;DHT22;90;48.810;9.120;2022-10-26T08:35:05;18.20;79.60
210;DHT22;90;48.810;9.120;2022-10-26T08:37:32;18.30;79.10
210;DHT22;90;48.810;9.120;2022-10-26T08:39:59;18.20;79.20
210;DHT22;90;48.810;9.120;2022-10-26T08:42:31;18.30;78.40
210;DHT22;90;48.810;9.120;2022-10-26T08:45:02;18.60;77.00
210;DHT22;90;48.810;9.120;2022-10-26T08:47:36;18.60;77.30
210;DHT22;90;48.810;9.120;2022-10-26T08:50:10;18.60;77.30
210;DHT22;90;48.810;9.120;2022-10-26T08:52:45;18.70;76.90
210;DHT22;90;48.810;9.120;2022-10-26T08:55:18;19.00;76.40
210;DHT22;90;48.810;9.120;2022-10-26T08:57:47;19.00;75.50
210;DHT22;90;48.810;9.120;2022-10-26T09:00:19;19.10;75.50
210;DHT22;90;48.810;9.120;2022-10-26T09:02:50;19.20;75.20
210;DHT22;90;48.810;9.120;2022-10-26T09:05:22;19.30;75.00
210;DHT22;90;48.810;9.120;2022-10-26T09:07:54;19.30;75.00
210;DHT22;90;48.810;9.120;2022-10-26T09:10:35;19.40;74.30
210;DHT22;90;48.810;9.120;2022-10-26T09:13:09;19.50;73.80
210;DHT22;90;48.810;9.120;2022-10-26T09:15:51;19.50;73.80
210;DHT22;90;48.810;9.120;2022-10-26T09:18:40;19.60;73.70
210;DHT22;90;48.810;9.120;2022-10-26T09:21:25;19.70;73.10
210;DHT22;90;48.810;9.120;2022-10-26T09:24:11;19.90;72.60
210;DHT22;90;48.810;9.120;2022-10-26T09:26:57;20.00;72.30
210;DHT22;90;48.810;9.120;2022-10-26T09:30:39;20.00;72.20
210;DHT22;90;48.810;9.120;2022-10-26T09:33:13;20.00;71.60
210;DHT22;90;48.810;9.120;2022-10-26T09:35:58;19.80;72.70
210;DHT22;90;48.810;9.120;2022-10-26T09:38:32;19.80;72.80
210;DHT22;90;48.810;9.120;2022-10-26T09:41:17;19.90;72.40
210;DHT22;90;48.810;9.120;2022-10-26T09:44:02;19.90;71.70
210;DHT22;90;48.810;9.120;2022-10-26T09:46:46;20.00;71.90
210;DHT22;90;48.810;9.120;2022-10-26T09:49:32;19.90;71.60
210;DHT22;90;48.810;9.120;2022-10-26T09:52:27;19.80;72.20
210;DHT22;90;48.810;9.120;2022-10-26T09:55:00;19.80;72.50
210;DHT22;90;48.810;9.120;2022-10-26T09:57:31;19.80;71.90
210;DHT22;90;48.810;9.120;2022-10-26T10:00:24;19.80;71.90
210;DHT22;90;48.810;9.120;2022-10-26T10:02:59;19.80;72.70
210;DHT22;90;48.810;9.120;2022-10-26T10:05:28;19.90;72.30
210;DHT22;90;48.810;9.120;2022-10-26T10:08:14;19.90;72.30
210;DHT22;90;48.810;9.120;2022-10-26T10:10:56;19.90;71.80
210;DHT22;90;48.810;9.120;2022-10-26T10:13:25;20.00;72.30
210;DHT22;90;48.810;9.120;2022-10-26T10:15:54;20.00;72.10
210;DHT22;90;48.810;9.120;2022-10-26T10:18:23;20.00;71.90
210;DHT22;90;48.810;9.120;2022-10-26T10:20:55;20.20;72.00
210;DHT22;90;48.810;9.120;2022-10-26T10:23:29;20.10;71.90
210;DHT22;90;48.810;9.120;2022-10-26T10:26:08;20.10;72.10
210;DHT22;90;48.810;9.120;2022-10-26T10:28:37;20.20;71.60
210;DHT22;90;48.810;9.120;2022-10-26T10:31:18;20.20;71.60
210;DHT22;90;48.810;9.120;2022-10-26T10:33:45;20.30;71.60
210;DHT22;90;48.810;9.120;2022-10-26T10:36:17;20.50;71.20
210;DHT22;90;48.810;9.120;2022-10-26T10:38:48;20.80;70.60
210;DHT22;90;48.810;9.120;2022-10-26T10:41:27;20.80;70.10
210;DHT22;90;48.810;9.120;2022-10-26T10:44:00;20.70;70.30
210;DHT22;90;48.810;9.120;2022-10-26T10:46:28;20.60;70.40
210;DHT22;90;48.810;9.120;2022-10-26T10:49:01;20.60;70.50
210;DHT22;90;48.810;9.120;2022-10-26T10:51:34;20.60;70.80
210;DHT22;90;48.810;9.120;2022-10-26T10:54:04;20.60;70.90
210;DHT22;90;48.810;9.120;2022-10-26T10:56:37;20.50;70.80
210;DHT22;90;48.810;9.120;2022-10-26T10:59:27;20.50;71.30
210;DHT22;90;48.810;9.120;2022-10-26T11:02:22;20.50;72.30
210;DHT22;90;48.810;9.120;2022-10-26T11:05:01;20.70;71.00
210;DHT22;90;48.810;9.120;2022-10-26T11:07:41;20.80;71.00
210;DHT22;90;48.810;9.120;2022-10-26T11:10:14;20.90;71.00
210;DHT22;90;48.810;9.120;2022-10-26T11:12:48;20.90;70.70
210;DHT22;90;48.810;9.120;2022-10-26T11:15:19;20.90;70.40
210;DHT22;90;48.810;9.120;2022-10-26T11:17:54;20.70;70.70
210;DHT22;90;48.810;9.120;2022-10-26T11:20:26;20.70;70.70
210;DHT22;90;48.810;9.120;2022-10-26T11:23:02;20.50;70.50
210;DHT22;90;48.810;9.120;2022-10-26T11:25:46;20.40;71.00
210;DHT22;90;48.810;9.120;2022-10-26T11:28:25;20.40;71.00
210;DHT22;90;48.810;9.120;2022-10-26T11:31:01;20.60;70.90
210;DHT22;90;48.810;9.120;2022-10-26T11:33:32;20.60;70.90
210;DHT22;90;48.810;9.120;2022-10-26T11:36:03;20.60;69.90
210;DHT22;90;48.810;9.120;2022-10-26T11:38:37;20.50;70.30
210;DHT22;90;48.810;9.120;2022-10-26T11:41:14;20.50;71.70
210;DHT22;90;48.810;9.120;2022-10-26T11:43:45;20.60;70.20
210;DHT22;90;48.810;9.120;2022-10-26T11:46:16;20.50;70.20
210;DHT22;90;48.810;9.120;2022-10-26T11:48:49;20.40;71.20
210;DHT22;90;48.810;9.120;2022-10-26T11:51:21;20.40;71.20
210;DHT22;90;48.810;9.120;2022-10-26T11:53:50;20.50;71.50
210;DHT22;90;48.810;9.120;2022-10-26T11:56:24;20.50;71.40
210;DHT22;90;48.810;9.120;2022-10-26T11:58:53;20.60;71.10
210;DHT22;90;48.810;9.120;2022-10-26T12:01:22;20.70;70.10
210;DHT22;90;48.810;9.120;2022-10-26T12:03:52;20.60;70.20
210;DHT22;90;48.810;9.120;2022-10-26T12:06:24;20.40;70.50
210;DHT22;90;48.810;9.120;2022-10-26T12:08:56;20.30;71.60
210;DHT22;90;48.810;9.120;2022-10-26T12:11:34;20.20;71.30
210;DHT22;90;48.810;9.120;2022-10-26T12:14:14;20.20;70.70
210;DHT22;90;48.810;9.120;2022-10-26T12:16:50;20.20;71.30
210;DHT22;90;48.810;9.120;2022-10-26T12:19:24;20.20;71.70
210;DHT22;90;48.810;9.120;2022-10-26T12:21:55;20.30;70.70
210;DHT22;90;48.810;9.120;2022-10-26T12:24:28;20.30;70.70
210;DHT22;90;48.810;9.120;2022-10-26T16:09:57;19.00;81.40
210;DHT22;90;48.810;9.120;2022-10-26T16:12:25;18.90;81.70
210;DHT22;90;48.810;9.120;2022-10-26T16:14:51;18.80;82.00
210;DHT22;90;48.810;9.120;2022-10-26T16:17:18;18.70;82.10
210;DHT22;90;48.810;9.120;2022-10-26T16:19:46;18.60;82.50
210;DHT22;90;48.810;9.120;2022-10-26T16:22:13;18.60;82.30
210;DHT22;90;48.810;9.120;2022-10-26T16:24:41;18.50;82.00
210;DHT22;90;48.810;9.120;2022-10-26T16:27:09;18.50;81.60
210;DHT22;90;48.810;9.120;2022-10-26T16:29:36;18.40;81.50
210;DHT22;90;48.810;9.120;2022-10-26T16:32:04;18.30;81.10
210;DHT22;90;48.810;9.120;2022-10-26T16:34:31;18.20;80.60
210;DHT22;90;48.810;9.120;2022-10-26T16:36:58;18.10;81.00
210;DHT22;90;48.810;9.120;2022-10-26T16:39:24;18.00;81.50
210;DHT22;90;48.810;9.120;2022-10-26T16:41:51;17.90;81.50
210;DHT22;90;48.810;9.120;2022-10-26T16:44:20;17.80;81.50
210;DHT22;90;48.810;9.120;2022-10-26T16:46:47;17.80;81.50
210;DHT22;90;48.810;9.120;2022-10-26T16:49:14;17.80;81.60
210;DHT22;90;48.810;9.120;2022-10-26T16:51:42;17.80;81.30
210;DHT22;90;48.810;9.120;2022-10-26T16:54:09;17.70;81.40
210;DHT22;90;48.810;9.120;2022-10-26T16:56:36;17.60;82.00
210;DHT22;90;48.810;9.120;2022-10-26T16:59:03;17.50;82.30
210;DHT22;90;48.810;9.120;2022-10-26T17:01:32;17.50;82.40
210;DHT22;90;48.810;9.120;2022-10-26T17:04:00;17.50;82.70
210;DHT22;90;48.810;9.120;2022-10-26T17:06:28;17.40;83.10
210;DHT22;90;48.810;9.120;2022-10-26T17:08:55;17.40;82.20
210;DHT22;90;48.810;9.120;2022-10-26T17:11:23;17.40;81.10
210;DHT22;90;48.810;9.120;2022-10-26T17:13:53;17.40;81.70
210;DHT22;90;48.810;9.120;2022-10-26T17:16:21;17.30;81.80
210;DHT22;90;48.810;9.120;2022-10-26T17:18:51;17.30;82.00
210;DHT22;90;48.810;9.120;2022-10-26T17:21:26;17.30;81.90
210;DHT22;90;48.810;9.120;2022-10-26T17:23:54;17.20;82.50
210;DHT22;90;48.810;9.120;2022-10-26T17:26:20;17.10;82.00
210;DHT22;90;48.810;9.120;2022-10-26T17:28:50;17.10;82.30
210;DHT22;90;48.810;9.120;2022-10-26T17:31:17;17.10;82.80
210;DHT22;90;48.810;9.120;2022-10-26T17:33:44;17.10;82.50
210;DHT22;90;48.810;9.120;2022-10-26T17:36:18;17.10;82.50
210;DHT22;90;48.810;9.120;2022-10-26T17:38:48;17.10;82.50
210;DHT22;90;48.810;9.120;2022-10-26T17:41:16;17.10;82.80
210;DHT22;90;48.810;9.120;2022-10-26T17:43:46;17.00;83.00
210;DHT22;90;48.810;9.120;2022-10-26T17:46:14;17.00;83.20
210;DHT22;90;48.810;9.120;2022-10-26T17:48:42;17.00;83.20
210;DHT22;90;48.810;9.120;2022-10-26T17:51:11;17.00;83.30
210;DHT22;90;48.810;9.120;2022-10-26T17:53:39;17.00;83.50
210;DHT22;90;48.810;9.120;2022-10-26T17:56:09;17.00;83.60
210;DHT22;90;48.810;9.120;2022-10-26T17:58:37;16.90;83.50
210;DHT22;90;48.810;9.120;2022-10-26T18:01:07;16.90;83.50
210;DHT22;90;48.810;9.120;2022-10-26T18:03:34;16.90;83.80
210;DHT22;90;48.810;9.120;2022-10-26T18:06:03;16.80;83.80
210;DHT22;90;48.810;9.120;2022-10-26T18:08:32;16.80;83.80
210;DHT22;90;48.810;9.120;2022-10-26T18:11:01;16.80;83.90
210;DHT22;90;48.810;9.120;2022-10-26T18:13:29;16.80;83.90
210;DHT22;90;48.810;9.120;2022-10-26T18:16:02;16.80;84.40
210;DHT22;90;48.810;9.120;2022-10-26T18:18:29;16.70;84.00
210;DHT22;90;48.810;9.120;2022-10-26T18:20:59;16.70;84.10
210;DHT22;90;48.810;9.120;2022-10-26T18:23:27;16.60;84.40
210;DHT22;90;48.810;9.120;2022-10-26T18:26:05;16.60;84.80
210;DHT22;90;48.810;9.120;2022-10-26T18:28:33;16.60;84.80
210;DHT22;90;48.810;9.120;2022-10-26T18:31:02;16.60;84.80
210;DHT22;90;48.810;9.120;2022-10-26T18:33:30;16.60;84.60
210;DHT22;90;48.810;9.120;2022-10-26T18:36:02;16.70;84.60
210;DHT22;90;48.810;9.120;2022-10-26T18:38:30;16.60;84.20
210;DHT22;90;48.810;9.120;2022-10-26T18:40:58;16.60;84.40
210;DHT22;90;48.810;9.120;2022-10-26T18:43:27;16.60;84.50
210;DHT22;90;48.810;9.120;2022-10-26T18:46:02;16.60;84.60
210;DHT22;90;48.810;9.120;2022-10-26T18:48:29;16.50;84.70
210;DHT22;90;48.810;9.120;2022-10-26T18:51:00;16.50;84.70
210;DHT22;90;48.810;9.120;2022-10-26T18:53:27;16.40;84.90
210;DHT22;90;48.810;9.120;2022-10-26T18:55:59;16.40;85.10
210;DHT22;90;48.810;9.120;2022-10-26T18:58:29;16.30;85.60
210;DHT22;90;48.810;9.120;2022-10-26T19:01:05;16.30;85.70
210;DHT22;90;48.810;9.120;2022-10-26T19:03:32;16.20;86.50
210;DHT22;90;48.810;9.120;2022-10-26T19:06:06;16.20;86.20
210;DHT22;90;48.810;9.120;2022-10-26T19:08:33;16.30;85.80
210;DHT22;90;48.810;9.120;2022-10-26T19:11:01;16.30;85.70
210;DHT22;90;48.810;9.120;2022-10-26T19:13:29;16.30;85.60
210;DHT22;90;48.810;9.120;2022-10-26T19:16:00;16.20;86.20
210;DHT22;90;48.810;9.120;2022-10-26T19:18:28;16.10;86.30
210;DHT22;90;48.810;9.120;2022-10-26T19:20:59;16.00;86.40
210;DHT22;90;48.810;9.120;2022-10-26T19:23:30;16.00;86.70
210;DHT22;90;48.810;9.120;2022-10-26T19:25:57;15.90;86.90
210;DHT22;90;48.810;9.120;2022-10-26T19:28:25;15.90;87.20
210;DHT22;90;48.810;9.120;2022-10-26T19:30:54;15.90;87.30
210;DHT22;90;48.810;9.120;2022-10-26T19:33:22;15.80;87.30
210;DHT22;90;48.810;9.120;2022-10-26T19:35:50;15.80;87.30
210;DHT22;90;48.810;9.120;2022-10-26T19:38:18;15.80;87.70
210;DHT22;90;48.810;9.120;2022-10-26T19:40:45;15.80;87.70
210;DHT22;90;48.810;9.120;2022-10-26T19:43:12;15.80;87.60
210;DHT22;90;48.810;9.120;2022-10-26T19:45:41;15.80;87.60
210;DHT22;90;48.810;9.120;2022-10-26T19:48:09;15.80;87.50
210;DHT22;90;48.810;9.120;2022-10-26T19:50:36;15.80;87.30
210;DHT22;90;48.810;9.120;2022-10-26T19:53:03;15.80;87.30
210;DHT22;90;48.810;9.120;2022-10-26T19:55:30;15.70;87.70
210;DHT22;90;48.810;9.120;2022-10-26T19:57:57;15.60;87.80
210;DHT22;90;48.810;9.120;2022-10-26T20:00:24;15.60;88.00
210;DHT22;90;48.810;9.120;2022-10-26T20:02:51;15.60;88.10
210;DHT22;90;48.810;9.120;2022-10-26T20:05:20;15.60;87.90
210;DHT22;90;48.810;9.120;2022-10-26T20:07:47;15.60;87.90
210;DHT22;90;48.810;9.120;2022-10-26T20:10:14;15.60;87.60
210;DHT22;90;48.810;9.120;2022-10-26T20:12:41;15.70;87.60
210;DHT22;90;48.810;9.120;2022-10-26T20:15:08;15.70;87.50
210;DHT22;90;48.810;9.120;2022-10-26T20:17:35;15.60;87.60
210;DHT22;90;48.810;9.120;2022-10-26T20:20:03;15.70;87.40
210;DHT22;90;48.810;9.120;2022-10-26T20:22:31;15.60;87.50
210;DHT22;90;48.810;9.120;2022-10-26T20:24:59;15.60;87.60
210;DHT22;90;48.810;9.120;2022-10-26T20:27:25;15.50;87.90
210;DHT22;90;48.810;9.120;2022-10-26T20:29:52;15.40;88.00
210;DHT22;90;48.810;9.120;2022-10-26T20:32:19;15.30;88.20
210;DHT22;90;48.810;9.120;2022-10-26T20:34:47;15.30;88.30
210;DHT22;90;48.810;9.120;2022-10-26T20:37:15;15.40;88.90
210;DHT22;90;48.810;9.120;2022-10-26T20:39:44;15.30;88.50
210;DHT22;90;48.810;9.120;2022-10-26T20:42:22;15.30;88.10
210;DHT22;90;48.810;9.120;2022-10-26T20:44:53;15.20;88.50
210;DHT22;90;48.810;9.120;2022-10-26T20:47:23;15.20;88.90
210;DHT22;90;48.810;9.120;2022-10-26T20:49:51;15.20;89.50
210;DHT22;90;48.810;9.120;2022-10-26T20:52:21;15.20;89.20
210;DHT22;90;48.810;9.120;2022-10-26T20:55:02;15.20;88.60
210;DHT22;90;48.810;9.120;2022-10-26T20:57:31;15.20;88.60
210;DHT22;90;48.810;9.120;2022-10-26T21:00:04;15.20;88.30
210;DHT22;90;48.810;9.120;2022-10-26T21:02:33;15.20;88.20
210;DHT22;90;48.810;9.120;2022-10-26T21:05:01;15.20;88.60
210;DHT22;90;48.810;9.120;2022-10-26T21:07:28;15.10;88.70
210;DHT22;90;48.810;9.120;2022-10-26T21:09:57;15.10;88.90
210;DHT22;90;48.810;9.120;2022-10-26T21:12:24;15.10;89.00
210;DHT22;90;48.810;9.120;2022-10-26T21:14:51;15.00;89.10
210;DHT22;90;48.810;9.120;2022-10-26T21:17:19;15.00;88.90
210;DHT22;90;48.810;9.120;2022-10-26T21:19:46;15.00;89.60